Time;durP1;ratioP1;P1;durP2;ratioP2;P2;SDS_P1;SDS_P2;PMS_P1;PMS_P2;Temp;Humidity;BMP_temperature;BMP_pressure;BME280_temperature;BME280_humidity;BME280_pressure;Samples;Min_cycle;Max_cycle;Signal;HPM_P1;HPM_P2
2024/03/15 00:00:17;;;;;;;23.35;15.50;;;-0.10;86.00;;;;;;4955409;29;20026;-86
2024/03/15 00:02:45;;;;;;;33.45;17.30;;;-0.10;85.80;;;;;;4956284;28;20091;-87
2024/03/15 00:05:12;;;;;;;24.52;13.43;;;-0.20;85.80;;;;;;4957201;28;20019;-90
2024/03/15 00:07:38;;;;;;;23.02;15.35;;;-0.20;85.80;;;;;;4957637;28;20119;-89
2024/03/15 00:10:05;;;;;;;21.65;15.80;;;-0.20;86.00;;;;;;4966289;28;20032;-90
2024/03/15 00:12:33;;;;;;;25.92;15.57;;;-0.20;86.00;;;;;;4951777;29;20019;-89
2024/03/15 00:14:59;;;;;;;24.95;16.00;;;-0.20;86.10;;;;;;4956723;28;20034;-93
2024/03/15 00:17:25;;;;;;;28.52;17.17;;;-0.20;86.70;;;;;;4954234;29;20032;-89
2024/03/15 00:19:51;;;;;;;27.00;17.40;;;-0.20;86.20;;;;;;4946135;29;20055;-90
2024/03/15 00:22:17;;;;;;;24.23;17.35;;;-0.20;86.20;;;;;;4956163;29;20028;-90
2024/03/15 00:24:42;;;;;;;24.77;17.35;;;-0.20;86.40;;;;;;4947960;28;20043;-89
2024/03/15 00:27:08;;;;;;;26.75;17.20;;;-0.20;86.50;;;;;;4953461;29;20019;-89
2024/03/15 00:29:36;;;;;;;23.58;14.77;;;-0.20;86.60;;;;;;4946743;28;20473;-89
2024/03/15 00:32:02;;;;;;;25.95;16.65;;;-0.30;86.60;;;;;;4955733;29;20015;-88
2024/03/15 00:34:30;;;;;;;30.02;17.73;;;-0.20;86.70;;;;;;4959154;28;20077;-89
2024/03/15 00:36:56;;;;;;;25.83;16.85;;;-0.30;86.70;;;;;;4954605;28;20035;-89
2024/03/15 00:39:21;;;;;;;24.30;14.25;;;-0.30;86.80;;;;;;4957840;29;20473;-88
2024/03/15 00:41:47;;;;;;;29.90;17.60;;;-0.30;86.90;;;;;;4961160;28;20033;-88
2024/03/15 00:44:14;;;;;;;28.17;18.50;;;-0.20;87.00;;;;;;4955990;29;20476;-88
2024/03/15 00:46:40;;;;;;;28.92;18.40;;;-0.20;87.00;;;;;;4952772;28;20640;-87
2024/03/15 00:49:06;;;;;;;25.17;17.58;;;-0.30;86.90;;;;;;4955457;29;20118;-88
2024/03/15 00:51:32;;;;;;;27.13;18.05;;;-0.30;87.10;;;;;;4959579;29;20106;-87
2024/03/15 00:53:58;;;;;;;31.88;18.23;;;-0.30;87.20;;;;;;4964055;28;20023;-87
2024/03/15 00:56:23;;;;;;;28.40;16.42;;;-0.30;87.30;;;;;;4960067;28;20031;-88
2024/03/15 00:58:50;;;;;;;27.75;16.35;;;-0.30;87.50;;;;;;4960471;28;20042;-87
2024/03/15 01:01:16;;;;;;;33.70;19.20;;;-0.40;87.50;;;;;;4960978;28;20023;-89
2024/03/15 01:03:42;;;;;;;29.50;18.10;;;-0.40;87.60;;;;;;4959731;29;20031;-89
2024/03/15 01:06:07;;;;;;;24.08;15.65;;;-0.40;87.60;;;;;;4954661;29;20047;-90
2024/03/15 01:08:33;;;;;;;27.55;17.67;;;-0.40;87.70;;;;;;4961311;28;20023;-88
2024/03/15 01:11:00;;;;;;;25.98;18.15;;;-0.40;87.90;;;;;;4961190;28;20389;-87
2024/03/15 01:13:25;;;;;;;25.35;16.48;;;-0.40;88.00;;;;;;4960117;29;20473;-89
2024/03/15 01:15:51;;;;;;;23.38;16.00;;;-0.40;88.10;;;;;;4957741;28;20046;-89
2024/03/15 01:18:17;;;;;;;25.13;18.98;;;-0.40;88.20;;;;;;4958140;28;20023;-90
2024/03/15 01:20:43;;;;;;;29.48;17.30;;;-0.40;88.30;;;;;;4957096;28;20051;-88
2024/03/15 01:23:09;;;;;;;28.85;16.83;;;-0.40;88.30;;;;;;4947942;29;20078;-89
2024/03/15 01:25:35;;;;;;;28.08;17.70;;;-0.40;88.40;;;;;;4969331;28;20119;-86
2024/03/15 01:28:05;;;;;;;28.92;17.50;;;-0.40;88.60;;;;;;4961233;28;20015;-90
2024/03/15 01:30:31;;;;;;;25.50;17.50;;;-0.40;88.70;;;;;;4958671;29;20027;-89
2024/03/15 01:32:57;;;;;;;29.73;17.58;;;-0.50;88.70;;;;;;4959397;28;20020;-88
2024/03/15 01:35:32;;;;;;;25.60;17.58;;;-0.40;88.80;;;;;;4959650;29;20030;-90
2024/03/15 01:38:00;;;;;;;24.90;16.98;;;-0.50;88.90;;;;;;4952350;29;20092;-88
2024/03/15 01:40:26;;;;;;;27.25;17.70;;;-0.50;89.10;;;;;;4957665;28;20619;-88
2024/03/15 01:42:52;;;;;;;27.73;16.77;;;-0.50;89.10;;;;;;4955568;28;20027;-90
2024/03/15 01:45:18;;;;;;;26.50;16.58;;;-0.50;89.10;;;;;;4958056;28;20031;-88
2024/03/15 01:47:44;;;;;;;23.00;17.27;;;-0.50;89.30;;;;;;4957665;28;20134;-88
2024/03/15 01:50:12;;;;;;;24.70;16.90;;;-0.50;89.50;;;;;;4957850;28;20031;-88
2024/03/15 01:52:41;;;;;;;28.65;18.63;;;-0.50;90.00;;;;;;4958654;28;20369;-86
2024/03/15 01:55:08;;;;;;;22.13;15.02;;;-0.60;89.40;;;;;;4952971;28;20042;-87
2024/03/15 01:57:38;;;;;;;27.60;17.40;;;-0.60;89.60;;;;;;4949632;29;20504;-88
2024/03/15 02:00:10;;;;;;;27.67;19.17;;;-0.60;90.00;;;;;;4960844;28;20301;-87
2024/03/15 02:02:37;;;;;;;26.08;17.10;;;-0.60;89.80;;;;;;4962087;29;20719;-87
2024/03/15 02:05:03;;;;;;;31.05;17.92;;;-0.70;89.90;;;;;;4960876;28;20019;-86
2024/03/15 02:07:28;;;;;;;28.23;17.52;;;-0.70;90.00;;;;;;4960353;29;20062;-89
2024/03/15 02:09:55;;;;;;;30.13;19.10;;;-0.70;90.00;;;;;;4950688;28;20044;-88
2024/03/15 02:12:21;;;;;;;27.23;17.30;;;-0.70;90.10;;;;;;4956590;28;20031;-88
2024/03/15 02:14:50;;;;;;;26.45;16.92;;;-0.70;90.20;;;;;;4954413;28;20024;-91
2024/03/15 02:17:17;;;;;;;26.10;16.08;;;-0.70;90.20;;;;;;4952912;29;20050;-86
2024/03/15 02:19:46;;;;;;;28.17;18.48;;;-0.70;90.30;;;;;;4953008;28;20063;-87
2024/03/15 02:22:12;;;;;;;27.50;18.52;;;-0.80;90.20;;;;;;4960776;28;20070;-86
2024/03/15 02:24:38;;;;;;;26.40;17.50;;;-0.80;90.30;;;;;;4958018;28;20035;-89
2024/03/15 02:27:08;;;;;;;25.33;14.97;;;-0.80;90.40;;;;;;4957274;29;20023;-88
2024/03/15 02:29:34;;;;;;;27.65;15.90;;;-0.80;90.40;;;;;;4946618;29;20016;-88
2024/03/15 02:32:00;;;;;;;26.65;16.85;;;-0.80;90.50;;;;;;4958903;28;20019;-88
2024/03/15 02:34:26;;;;;;;32.08;17.95;;;-0.80;90.50;;;;;;4960736;29;20027;-88
2024/03/15 02:36:52;;;;;;;26.17;17.52;;;-0.90;90.50;;;;;;4964203;28;20043;-87
2024/03/15 02:39:19;;;;;;;26.90;18.30;;;-0.80;90.60;;;;;;4958591;28;20028;-86
2024/03/15 02:41:45;;;;;;;26.13;16.33;;;-0.90;90.50;;;;;;4959083;28;20054;-88
2024/03/15 02:44:11;;;;;;;27.73;17.77;;;-0.80;90.60;;;;;;4956873;28;20089;-86
2024/03/15 02:46:37;;;;;;;27.38;18.15;;;-0.90;90.60;;;;;;4954867;29;20547;-88
2024/03/15 02:49:05;;;;;;;29.42;18.10;;;-0.90;90.70;;;;;;4953376;28;20027;-89
2024/03/15 02:51:31;;;;;;;28.80;18.55;;;-0.80;90.80;;;;;;4955647;29;20515;-88
2024/03/15 02:53:57;;;;;;;30.48;17.23;;;-0.80;90.80;;;;;;4956689;28;20095;-85
2024/03/15 02:56:23;;;;;;;26.80;16.63;;;-0.80;90.70;;;;;;4966203;28;20063;-87
2024/03/15 02:58:49;;;;;;;27.55;18.17;;;-0.80;90.80;;;;;;4950323;29;20046;-87
2024/03/15 03:01:14;;;;;;;25.17;17.23;;;-0.80;90.80;;;;;;4957632;29;20094;-87
2024/03/15 03:03:41;;;;;;;25.50;15.30;;;-0.80;90.90;;;;;;4963874;28;20109;-89
2024/03/15 03:06:08;;;;;;;28.48;16.50;;;-0.80;90.90;;;;;;4964131;28;20023;-90
2024/03/15 03:08:35;;;;;;;28.63;17.20;;;-0.80;90.90;;;;;;4957339;28;20091;-89
2024/03/15 03:11:07;;;;;;;27.10;16.33;;;-0.80;90.90;;;;;;4953179;28;20031;-90
2024/03/15 03:13:35;;;;;;;23.50;16.25;;;-0.80;91.00;;;;;;4949958;28;20032;-89
2024/03/15 03:16:02;;;;;;;23.75;15.93;;;-0.80;91.00;;;;;;4955047;28;20039;-92
2024/03/15 03:18:28;;;;;;;24.35;17.38;;;-0.70;91.10;;;;;;4957130;29;20030;-91
2024/03/15 03:20:57;;;;;;;26.42;17.25;;;-0.80;91.10;;;;;;4956428;28;20047;-88
2024/03/15 03:23:23;;;;;;;28.60;17.10;;;-0.80;91.10;;;;;;4956914;29;20031;-88
2024/03/15 03:25:51;;;;;;;25.65;16.80;;;-0.80;91.10;;;;;;4945152;28;20038;-86
2024/03/15 03:28:17;;;;;;;25.60;16.98;;;-0.80;91.20;;;;;;4949773;28;20027;-87
2024/03/15 03:30:44;;;;;;;25.88;17.05;;;-0.80;91.30;;;;;;4951365;29;20181;-87
2024/03/15 03:33:10;;;;;;;24.05;15.95;;;-0.80;91.30;;;;;;4949108;28;20038;-88
2024/03/15 03:35:36;;;;;;;29.15;17.15;;;-0.70;91.30;;;;;;4952447;28;20134;-88
2024/03/15 03:38:02;;;;;;;28.45;18.85;;;-0.70;91.30;;;;;;4955832;28;20027;-89
2024/03/15 03:40:28;;;;;;;25.67;18.55;;;-0.70;91.30;;;;;;4955372;29;20031;-89
2024/03/15 03:42:54;;;;;;;28.70;18.70;;;-0.70;91.30;;;;;;4944604;28;20063;-89
2024/03/15 03:45:22;;;;;;;22.35;14.32;;;-0.70;91.40;;;;;;4949309;28;20020;-88
2024/03/15 03:47:49;;;;;;;27.35;18.23;;;-0.70;91.40;;;;;;4952992;29;20035;-89
2024/03/15 03:50:18;;;;;;;28.55;17.15;;;-0.70;91.40;;;;;;4950868;28;20054;-86
2024/03/15 03:52:46;;;;;;;23.92;15.25;;;-0.70;91.40;;;;;;4952872;29;20027;-88
2024/03/15 03:55:13;;;;;;;28.48;19.33;;;-0.70;91.50;;;;;;4960105;28;20019;-89
2024/03/15 03:57:41;;;;;;;27.00;17.73;;;-0.70;91.50;;;;;;4955943;28;20043;-89
2024/03/15 04:00:13;;;;;;;25.15;18.35;;;-0.70;91.40;;;;;;4950146;29;20028;-88
2024/03/15 04:02:40;;;;;;;23.15;17.30;;;-0.70;91.40;;;;;;4961195;28;20083;-88
2024/03/15 04:05:06;;;;;;;25.25;17.70;;;-0.70;91.40;;;;;;4949003;28;20053;-88
2024/03/15 04:07:32;;;;;;;32.80;18.83;;;-0.70;91.40;;;;;;4964493;28;20007;-87
2024/03/15 04:09:58;;;;;;;23.88;15.75;;;-0.60;91.50;;;;;;4959690;28;20054;-88
2024/03/15 04:12:26;;;;;;;29.40;19.02;;;-0.60;91.50;;;;;;4970647;28;20034;-87
2024/03/15 04:14:53;;;;;;;26.38;17.33;;;-0.50;91.50;;;;;;4967940;28;20027;-87
2024/03/15 04:17:19;;;;;;;28.65;17.15;;;-0.50;91.50;;;;;;4952400;29;20087;-89
2024/03/15 04:19:47;;;;;;;28.02;17.30;;;-0.50;91.50;;;;;;4960693;28;20039;-89
2024/03/15 04:22:13;;;;;;;29.35;17.67;;;-0.40;91.50;;;;;;4956545;29;20031;-89
2024/03/15 04:24:43;;;;;;;29.83;17.98;;;-0.40;91.50;;;;;;4960063;29;20038;-88
2024/03/15 04:27:09;;;;;;;30.35;16.77;;;-0.40;91.50;;;;;;4960202;28;20085;-90
2024/03/15 04:29:36;;;;;;;24.05;15.48;;;-0.40;91.40;;;;;;4964523;28;20425;-93
2024/03/15 04:32:02;;;;;;;32.67;19.55;;;-0.40;91.40;;;;;;4967663;28;20361;-90
2024/03/15 04:34:30;;;;;;;25.48;14.55;;;-0.30;91.50;;;;;;4962934;29;20023;-92
2024/03/15 04:36:57;;;;;;;23.02;16.05;;;-0.30;91.40;;;;;;4966797;28;20080;-90
2024/03/15 04:39:23;;;;;;;24.30;15.50;;;-0.20;91.50;;;;;;4967488;28;20056;-91
2024/03/15 04:41:49;;;;;;;27.50;15.98;;;-0.20;91.40;;;;;;4973387;28;20028;-90
2024/03/15 04:44:14;;;;;;;29.15;17.63;;;-0.20;91.50;;;;;;4971342;28;20027;-91
2024/03/15 04:46:40;;;;;;;28.63;17.20;;;-0.20;91.50;;;;;;4966394;29;20023;-89
2024/03/15 04:49:09;;;;;;;24.77;15.85;;;-0.10;91.50;;;;;;4976538;28;20035;-90
2024/03/15 04:51:35;;;;;;;24.75;15.70;;;-0.10;91.40;;;;;;4972368;29;20055;-92
2024/03/15 04:54:00;;;;;;;28.00;17.17;;;-0.10;91.50;;;;;;4967103;28;20035;-88
2024/03/15 04:56:26;;;;;;;28.80;17.33;;;-0.10;91.50;;;;;;4960571;28;20050;-91
2024/03/15 04:58:52;;;;;;;28.95;16.77;;;0.00;91.50;;;;;;4952603;29;20032;-90
2024/03/15 05:01:17;;;;;;;24.70;15.77;;;0.00;91.40;;;;;;4962786;28;20093;-87
2024/03/15 05:03:43;;;;;;;28.35;18.30;;;0.00;91.40;;;;;;4953196;29;20468;-90
2024/03/15 05:06:09;;;;;;;24.00;17.63;;;0.10;91.50;;;;;;4958657;29;20031;-90
2024/03/15 05:08:35;;;;;;;25.85;16.70;;;0.10;91.40;;;;;;4954216;29;20429;-87
2024/03/15 05:11:01;;;;;;;27.08;17.33;;;0.20;91.30;;;;;;4955302;28;20038;-88
2024/03/15 05:13:28;;;;;;;25.40;17.60;;;0.20;91.30;;;;;;4961381;29;20019;-89
2024/03/15 05:15:54;;;;;;;24.98;15.93;;;0.30;91.30;;;;;;4956067;28;20042;-88
2024/03/15 05:18:20;;;;;;;32.10;19.48;;;0.30;91.20;;;;;;4957359;28;20032;-90
2024/03/15 05:20:49;;;;;;;27.20;18.08;;;0.40;91.20;;;;;;4960858;28;20075;-88
2024/03/15 05:23:17;;;;;;;24.00;18.20;;;0.40;91.20;;;;;;4969415;28;20038;-92
2024/03/15 05:25:43;;;;;;;25.25;14.88;;;0.50;91.20;;;;;;4964883;29;20389;-92
2024/03/15 05:28:08;;;;;;;27.50;17.65;;;0.60;91.10;;;;;;4972271;29;20031;-90
2024/03/15 05:30:35;;;;;;;23.95;17.58;;;0.70;91.00;;;;;;4968166;28;20028;-92
2024/03/15 05:33:03;;;;;;;26.70;17.23;;;0.80;91.10;;;;;;4963614;28;20019;-90
2024/03/15 05:36:01;;;;;;;24.10;16.00;;;0.90;91.10;;;;;;4955840;28;20555;-90
2024/03/15 05:38:27;;;;;;;27.73;17.60;;;1.00;91.10;;;;;;4920546;29;20059;-89
2024/03/15 05:40:53;;;;;;;25.23;18.58;;;1.10;91.00;;;;;;4955748;29;20030;-92
2024/03/15 05:43:18;;;;;;;23.67;16.00;;;1.20;91.00;;;;;;4959198;28;20391;-89
2024/03/15 05:45:44;;;;;;;29.23;17.63;;;1.30;91.00;;;;;;4954928;29;20034;-89
2024/03/15 05:48:10;;;;;;;25.50;16.77;;;1.40;90.80;;;;;;4958921;29;20107;-90
2024/03/15 05:50:39;;;;;;;29.55;18.65;;;1.50;90.70;;;;;;4956863;28;20046;-91
2024/03/15 05:53:08;;;;;;;28.92;19.75;;;1.60;90.60;;;;;;4960733;29;20098;-92
2024/03/15 05:55:34;;;;;;;25.02;17.75;;;1.70;90.50;;;;;;4960162;28;20028;-91
2024/03/15 05:58:01;;;;;;;30.63;17.85;;;1.80;90.40;;;;;;4957228;28;20381;-90
2024/03/15 06:00:27;;;;;;;27.67;17.25;;;1.90;90.30;;;;;;4957498;28;20043;-90
2024/03/15 06:02:53;;;;;;;27.10;18.20;;;2.00;90.10;;;;;;4955832;29;20034;-90
2024/03/15 06:05:22;;;;;;;28.98;17.02;;;2.10;90.00;;;;;;4961281;29;20130;-92
2024/03/15 06:07:48;;;;;;;32.88;18.98;;;2.20;89.50;;;;;;4960326;29;20020;-92
2024/03/15 06:10:16;;;;;;;23.42;16.85;;;2.20;89.90;;;;;;4953934;28;20035;-93
2024/03/15 06:12:43;;;;;;;26.20;18.55;;;2.20;89.00;;;;;;4960400;28;20038;-92
2024/03/15 06:15:10;;;;;;;22.83;16.83;;;2.20;89.00;;;;;;4960978;29;20042;-93
2024/03/15 06:17:36;;;;;;;24.23;15.82;;;2.20;89.10;;;;;;4960286;29;20027;-93
2024/03/15 06:20:03;;;;;;;26.50;16.93;;;2.30;88.90;;;;;;4958888;28;20039;-90
2024/03/15 06:22:52;;;;;;;27.05;18.65;;;2.30;88.70;;;;;;4957266;29;20288;-92
2024/03/15 06:25:17;;;;;;;28.50;17.00;;;2.40;88.40;;;;;;4955821;28;20032;-91
2024/03/15 06:27:44;;;;;;;27.13;19.20;;;2.40;88.30;;;;;;4965027;28;20051;-93
2024/03/15 06:30:12;;;;;;;27.87;19.67;;;2.40;88.30;;;;;;4960846;28;20038;-93
2024/03/15 06:32:39;;;;;;;25.60;17.98;;;2.50;88.10;;;;;;4963015;29;20027;-93
2024/03/15 06:35:27;;;;;;;30.70;18.92;;;2.50;87.80;;;;;;4966818;29;20110;-93
2024/03/15 06:37:57;;;;;;;27.30;18.48;;;2.60;87.50;;;;;;4968247;29;20031;-94
2024/03/15 06:43:45;;;;;;;25.00;17.40;;;2.70;87.10;;;;;;4951637;28;20146;-93
2024/03/15 06:46:20;;;;;;;28.98;20.38;;;2.70;86.70;;;;;;4975858;28;20024;-92
2024/03/15 06:49:02;;;;;;;26.98;18.15;;;2.80;86.50;;;;;;4971298;28;20035;-90
2024/03/15 06:55:19;;;;;;;25.75;18.38;;;2.90;86.30;;;;;;4958273;29;20030;-91
2024/03/15 06:58:23;;;;;;;28.30;18.25;;;3.10;86.10;;;;;;4918158;29;20032;-92
2024/03/15 07:04:26;;;;;;;29.10;19.00;;;3.20;85.10;;;;;;4900569;29;20541;-90
2024/03/15 07:07:21;;;;;;;26.92;17.23;;;3.20;84.80;;;;;;4906619;29;20035;-92
2024/03/15 07:10:01;;;;;;;25.30;16.13;;;3.30;84.70;;;;;;4899620;29;20099;-95
2024/03/15 07:13:09;;;;;;;25.65;15.27;;;3.30;84.10;;;;;;4918748;29;20121;-92
2024/03/15 07:15:39;;;;;;;25.58;18.25;;;3.30;84.30;;;;;;4892194;29;20060;-93
2024/03/15 07:18:08;;;;;;;26.83;18.35;;;3.40;84.30;;;;;;4901396;29;20044;-93
2024/03/15 07:20:36;;;;;;;27.73;16.85;;;3.50;84.20;;;;;;4916591;29;20040;-91
2024/03/15 07:23:05;;;;;;;30.33;19.50;;;3.60;83.80;;;;;;4908747;29;20032;-92
2024/03/15 07:25:31;;;;;;;27.70;19.60;;;3.80;83.20;;;;;;4922543;29;20039;-92
2024/03/15 07:27:57;;;;;;;27.02;17.25;;;3.80;83.00;;;;;;4924562;29;20039;-91
2024/03/15 07:30:24;;;;;;;20.52;14.50;;;3.90;82.80;;;;;;4904493;29;20040;-90
2024/03/15 07:32:51;;;;;;;26.65;17.30;;;4.10;82.40;;;;;;4957103;29;20035;-93
2024/03/15 07:35:17;;;;;;;26.33;16.00;;;4.10;81.80;;;;;;4956923;28;20023;-93
2024/03/15 07:37:46;;;;;;;23.23;16.05;;;4.50;81.90;;;;;;4961823;29;20385;-93
2024/03/15 07:40:14;;;;;;;23.25;15.85;;;5.40;80.30;;;;;;4968572;28;20027;-92
2024/03/15 07:42:41;;;;;;;21.63;16.02;;;7.00;77.90;;;;;;4974340;28;20038;-93
2024/03/15 07:45:12;;;;;;;23.50;15.50;;;8.20;73.00;;;;;;4957791;28;20404;-92
2024/03/15 07:47:38;;;;;;;20.88;16.42;;;9.40;69.70;;;;;;4966110;29;20031;-83
2024/03/15 07:50:04;;;;;;;26.90;16.77;;;10.60;66.40;;;;;;4957106;29;20023;-85
2024/03/15 07:52:31;;;;;;;19.48;15.40;;;11.70;62.60;;;;;;4954991;28;20078;-87
2024/03/15 07:54:59;;;;;;;27.20;16.17;;;11.90;58.80;;;;;;4958936;28;20032;-84
2024/03/15 07:57:25;;;;;;;19.05;15.82;;;11.40;58.40;;;;;;4942814;29;20083;-86
2024/03/15 07:59:51;;;;;;;25.33;16.48;;;11.40;59.20;;;;;;4955050;29;20047;-83
2024/03/15 08:02:17;;;;;;;19.05;15.23;;;11.90;58.40;;;;;;4954848;28;20043;-85
2024/03/15 08:04:47;;;;;;;21.95;15.60;;;12.80;57.10;;;;;;4953148;29;20477;-84
2024/03/15 08:07:14;;;;;;;21.10;16.73;;;13.40;54.80;;;;;;4952377;29;20026;-83
2024/03/15 08:09:40;;;;;;;17.25;12.43;;;13.40;54.50;;;;;;4956612;29;20035;-86
2024/03/15 08:12:07;;;;;;;16.98;14.32;;;14.00;52.60;;;;;;4957995;28;20086;-86
2024/03/15 08:14:36;;;;;;;19.73;14.40;;;13.30;52.70;;;;;;4957648;28;20042;-88
2024/03/15 08:17:04;;;;;;;22.83;15.48;;;13.20;53.10;;;;;;4952712;29;20404;-88
2024/03/15 08:19:30;;;;;;;22.42;16.27;;;13.80;53.20;;;;;;4957242;28;20019;-93
2024/03/15 08:21:57;;;;;;;18.02;13.05;;;14.10;51.70;;;;;;4955824;29;20035;-93
2024/03/15 08:24:26;;;;;;;22.85;16.77;;;14.40;50.80;;;;;;4921232;29;20074;-88
2024/03/15 08:26:52;;;;;;;17.27;14.35;;;14.70;50.80;;;;;;4948599;29;20023;-92
2024/03/15 08:29:20;;;;;;;19.58;15.60;;;15.70;49.70;;;;;;4953432;28;20109;-90
2024/03/15 08:31:47;;;;;;;20.48;16.13;;;16.10;48.30;;;;;;4954507;28;20082;-93
2024/03/15 08:34:14;;;;;;;21.08;15.60;;;16.00;47.90;;;;;;4954271;28;20046;-85
2024/03/15 08:36:40;;;;;;;19.27;14.57;;;16.10;46.90;;;;;;4945417;29;20099;-88
2024/03/15 08:39:15;;;;;;;20.45;15.82;;;16.30;46.60;;;;;;4958102;28;20063;-91
2024/03/15 08:41:43;;;;;;;23.08;17.73;;;15.70;47.00;;;;;;4953014;29;20039;-90
2024/03/15 08:44:09;;;;;;;22.17;17.02;;;15.60;47.80;;;;;;4946715;29;20387;-90
2024/03/15 08:46:36;;;;;;;27.75;18.70;;;16.80;46.60;;;;;;4945075;28;20027;-90
2024/03/15 08:49:02;;;;;;;20.20;18.00;;;17.30;45.10;;;;;;4950640;29;20034;-84
2024/03/15 08:51:28;;;;;;;25.23;17.30;;;17.70;45.00;;;;;;4955263;28;20101;-86
2024/03/15 08:53:54;;;;;;;16.98;14.00;;;17.40;44.20;;;;;;4956571;28;20081;-84
2024/03/15 08:56:20;;;;;;;20.73;16.45;;;16.60;44.50;;;;;;4956340;28;20121;-83
2024/03/15 08:58:49;;;;;;;18.55;16.52;;;15.70;46.60;;;;;;4948110;28;20020;-82
2024/03/15 09:01:16;;;;;;;21.35;16.27;;;16.50;45.90;;;;;;4943761;29;20438;-84
2024/03/15 09:03:42;;;;;;;17.55;15.13;;;17.30;44.90;;;;;;4946468;28;20023;-85
2024/03/15 09:06:08;;;;;;;18.98;16.25;;;17.50;44.50;;;;;;4955694;29;20035;-85
2024/03/15 09:08:34;;;;;;;21.08;17.20;;;18.50;43.90;;;;;;4942348;29;20020;-84
2024/03/15 09:11:01;;;;;;;19.60;16.13;;;19.40;42.20;;;;;;4956699;28;20054;-84
2024/03/15 09:13:28;;;;;;;19.05;16.02;;;20.00;41.10;;;;;;4956932;28;20024;-86
2024/03/15 09:15:57;;;;;;;20.98;15.45;;;20.20;40.40;;;;;;4960506;28;20035;-86
2024/03/15 09:18:27;;;;;;;19.95;16.25;;;19.10;41.00;;;;;;4950031;28;20066;-85
2024/03/15 09:20:57;;;;;;;18.63;16.30;;;17.80;42.10;;;;;;4950789;29;20083;-89
2024/03/15 09:23:24;;;;;;;18.33;15.45;;;16.50;43.60;;;;;;4934149;29;20055;-86
2024/03/15 09:25:49;;;;;;;17.58;13.30;;;14.80;45.80;;;;;;4955970;29;20114;-87
2024/03/15 09:28:15;;;;;;;18.48;14.65;;;13.20;48.30;;;;;;4956412;29;20047;-86
2024/03/15 09:30:53;;;;;;;19.70;16.92;;;12.30;50.40;;;;;;4952454;29;20023;-89
2024/03/15 09:33:19;;;;;;;26.80;17.65;;;11.80;51.90;;;;;;4945230;29;20082;-91
2024/03/15 09:35:46;;;;;;;23.88;15.70;;;11.70;52.40;;;;;;4965246;29;20035;-87
2024/03/15 09:38:15;;;;;;;13.77;8.50;;;11.80;52.60;;;;;;4961938;28;20047;-87
2024/03/15 09:40:42;;;;;;;15.05;12.15;;;11.60;52.30;;;;;;4960232;28;20023;-86
2024/03/15 09:43:18;;;;;;;16.95;12.18;;;11.10;53.70;;;;;;4955202;29;20023;-82
2024/03/15 09:45:44;;;;;;;17.73;11.35;;;11.70;53.50;;;;;;4949622;29;20016;-89
2024/03/15 09:48:11;;;;;;;17.38;11.85;;;12.90;52.50;;;;;;4958538;29;20035;-85
2024/03/15 09:50:40;;;;;;;17.25;12.38;;;14.00;49.90;;;;;;4960439;29;20520;-84
2024/03/15 09:53:09;;;;;;;17.20;12.52;;;14.40;49.10;;;;;;4955824;28;20031;-86
2024/03/15 09:55:35;;;;;;;17.38;12.55;;;14.70;48.10;;;;;;4956211;28;20026;-88
2024/03/15 09:58:04;;;;;;;18.58;13.43;;;15.30;47.50;;;;;;4954589;28;20032;-91
2024/03/15 10:00:30;;;;;;;14.38;12.27;;;15.70;47.20;;;;;;4951125;29;20023;-84
2024/03/15 10:02:56;;;;;;;21.05;13.90;;;16.60;46.30;;;;;;4939961;28;20365;-84
2024/03/15 10:05:23;;;;;;;17.48;13.95;;;17.20;45.10;;;;;;4955384;29;20112;-84
2024/03/15 10:07:52;;;;;;;19.17;14.60;;;17.00;44.80;;;;;;4944471;28;20030;-82
2024/03/15 10:10:19;;;;;;;20.38;14.40;;;16.70;44.60;;;;;;4953950;29;20038;-92
2024/03/15 10:12:50;;;;;;;17.60;14.15;;;15.60;45.70;;;;;;4957709;29;20552;-84
2024/03/15 10:15:17;;;;;;;21.23;15.40;;;14.80;47.10;;;;;;4960029;28;20118;-90
2024/03/15 10:17:48;;;;;;;17.80;14.85;;;14.40;48.50;;;;;;4949729;29;20513;-86
2024/03/15 10:20:17;;;;;;;19.23;14.98;;;13.70;49.00;;;;;;4945498;29;20044;-91
2024/03/15 10:22:51;;;;;;;21.83;15.13;;;13.30;50.70;;;;;;4958834;28;21782;-96
2024/03/15 10:25:20;;;;;;;23.30;15.35;;;13.20;51.00;;;;;;4941844;29;20155;-90
2024/03/15 10:27:48;;;;;;;20.83;15.52;;;12.80;51.50;;;;;;4957253;29;20082;-89
2024/03/15 10:30:25;;;;;;;34.80;18.95;;;12.70;52.10;;;;;;4955718;28;20024;-86
2024/03/15 10:32:53;;;;;;;25.90;16.48;;;12.30;52.50;;;;;;4951623;29;20019;-92
2024/03/15 10:35:20;;;;;;;32.22;19.33;;;11.80;53.60;;;;;;4946992;29;20066;-87
2024/03/15 10:37:50;;;;;;;24.45;15.57;;;11.50;54.50;;;;;;4949560;29;20031;-88
2024/03/15 10:40:24;;;;;;;24.63;17.33;;;11.40;55.10;;;;;;4947958;29;20027;-85
2024/03/15 10:42:53;;;;;;;22.02;14.70;;;11.20;55.80;;;;;;4958083;28;20019;-88
2024/03/15 10:45:20;;;;;;;25.13;15.95;;;10.70;56.60;;;;;;4956549;29;20038;-90
2024/03/15 10:47:47;;;;;;;22.35;15.52;;;10.40;57.60;;;;;;4956933;28;20059;-92
2024/03/15 10:50:18;;;;;;;27.43;16.20;;;10.10;58.30;;;;;;4955005;29;20015;-90
2024/03/15 10:52:45;;;;;;;23.80;15.05;;;10.00;58.80;;;;;;4942594;28;20023;-85
2024/03/15 10:55:14;;;;;;;23.52;16.38;;;10.00;59.10;;;;;;4954544;28;20027;-85
2024/03/15 10:57:40;;;;;;;26.33;18.30;;;10.00;59.50;;;;;;4954235;28;20042;-84
2024/03/15 11:00:14;;;;;;;27.40;18.67;;;10.00;59.90;;;;;;4946074;29;20024;-83
2024/03/15 11:02:46;;;;;;;26.02;15.95;;;9.90;60.00;;;;;;4938730;29;20138;-84
2024/03/15 11:05:23;;;;;;;21.48;13.95;;;9.80;60.40;;;;;;4948239;29;20508;-82
2024/03/15 11:08:08;;;;;;;26.23;14.00;;;9.60;61.00;;;;;;4953541;28;20408;-81
2024/03/15 11:10:34;;;;;;;22.60;16.63;;;9.30;61.60;;;;;;4947751;29;20130;-83
2024/03/15 11:13:04;;;;;;;25.77;16.48;;;9.00;62.60;;;;;;4953712;28;20090;-83
2024/03/15 11:15:35;;;;;;;24.00;15.63;;;9.10;62.80;;;;;;4944781;29;20039;-85
2024/03/15 11:18:06;;;;;;;18.85;13.63;;;8.90;63.00;;;;;;4940867;29;20033;-82
2024/03/15 11:20:52;;;;;;;18.90;15.63;;;8.70;63.80;;;;;;4955884;28;20065;-80
2024/03/15 11:23:27;;;;;;;22.23;13.55;;;8.40;65.20;;;;;;4942769;29;20051;-81
2024/03/15 11:26:02;;;;;;;28.98;13.98;;;8.10;66.00;;;;;;4953600;28;20027;-80
2024/03/15 11:28:32;;;;;;;28.42;17.67;;;8.10;66.70;;;;;;4947063;29;20035;-83
2024/03/15 11:31:01;;;;;;;28.63;15.88;;;8.00;67.60;;;;;;4954038;28;20091;-85
2024/03/15 11:33:27;;;;;;;28.85;16.88;;;7.90;67.80;;;;;;4944364;29;20094;-85
2024/03/15 11:35:53;;;;;;;22.73;15.67;;;7.90;68.30;;;;;;4952696;29;20123;-84
2024/03/15 11:38:20;;;;;;;27.95;16.77;;;7.80;69.10;;;;;;4943043;28;20066;-85
2024/03/15 11:40:47;;;;;;;26.73;19.25;;;7.70;70.00;;;;;;4953590;29;20043;-85
2024/03/15 11:43:14;;;;;;;28.40;16.90;;;7.70;70.10;;;;;;4953343;28;20019;-85
2024/03/15 11:45:41;;;;;;;30.30;18.13;;;7.70;70.30;;;;;;4943136;29;20035;-86
2024/03/15 11:48:21;;;;;;;26.05;18.40;;;8.00;70.40;;;;;;4959441;29;20031;-84
2024/03/15 11:50:49;;;;;;;26.02;18.67;;;8.20;69.80;;;;;;4957352;28;20031;-87
2024/03/15 11:53:17;;;;;;;25.58;17.17;;;8.30;69.30;;;;;;4956894;28;20023;-86
2024/03/15 11:55:44;;;;;;;31.63;18.70;;;8.30;69.10;;;;;;4954133;28;20110;-86
2024/03/15 11:58:14;;;;;;;24.80;16.42;;;8.30;69.30;;;;;;4957305;28;20481;-82
2024/03/15 12:00:41;;;;;;;23.33;16.83;;;8.30;69.40;;;;;;4955206;29;20095;-82
2024/03/15 12:03:10;;;;;;;22.08;16.95;;;8.20;69.60;;;;;;4957820;28;20055;-83
2024/03/15 12:05:41;;;;;;;23.42;16.23;;;8.30;70.50;;;;;;4941281;29;20068;-83
2024/03/15 12:08:18;;;;;;;27.00;16.90;;;8.20;70.00;;;;;;4946999;29;20063;-88
2024/03/15 12:10:44;;;;;;;29.23;18.67;;;8.20;70.40;;;;;;4951996;28;20386;-80
2024/03/15 12:13:20;;;;;;;32.40;17.73;;;8.10;70.50;;;;;;4936812;29;20030;-80
2024/03/15 12:15:48;;;;;;;28.65;17.13;;;8.10;70.50;;;;;;4944492;29;20130;-82
2024/03/15 12:18:19;;;;;;;23.55;17.15;;;8.00;70.60;;;;;;4943311;29;20027;-83
2024/03/15 12:20:46;;;;;;;29.85;18.65;;;7.90;70.70;;;;;;4953374;28;20170;-85
2024/03/15 12:23:15;;;;;;;27.17;15.23;;;7.70;71.10;;;;;;4953917;29;20054;-83
2024/03/15 12:25:45;;;;;;;26.70;16.65;;;7.70;71.50;;;;;;4941303;29;20381;-84
2024/03/15 12:28:17;;;;;;;24.58;15.20;;;7.50;71.80;;;;;;4957539;28;20391;-82
2024/03/15 12:30:47;;;;;;;24.23;17.55;;;7.40;72.10;;;;;;4940889;28;20087;-84
2024/03/15 12:33:13;;;;;;;22.00;14.55;;;7.30;72.50;;;;;;4960310;29;20511;-92
2024/03/15 12:35:40;;;;;;;25.83;17.67;;;7.30;72.70;;;;;;4950160;29;20054;-83
2024/03/15 12:38:09;;;;;;;30.55;18.65;;;7.20;73.10;;;;;;4958382;28;20023;-84
2024/03/15 12:40:40;;;;;;;29.17;17.52;;;7.10;73.60;;;;;;4955797;29;20194;-83
2024/03/15 12:43:06;;;;;;;22.33;15.90;;;7.10;73.80;;;;;;4946946;29;20030;-84
2024/03/15 12:45:31;;;;;;;25.42;18.35;;;7.30;73.70;;;;;;4959420;28;20047;-84